Terminal Aerodrome Forecast
Issued by NWS Pittsburgh, PA

Current Version | Previous Version | Graphics & Text | Print | Product List | Glossary On
Versions: 1 2 3 4 5 6 7 8 9 10 11 12 13 14 15 16 17 18 19 20 21 22 23 24 25 26 27 28 29 30
837
FTUS41 KPBZ 192337
TAFPIT
TAF
KPIT 192337Z 2000/2106 01008KT P6SM BKN100
     FM200200 01006KT P6SM VCTS BKN100CB
     FM200400 03006KT P6SM BKN050
     FM210000 09006KT P6SM VCSH BKN050=

USA.gov is the U.S. government's official web portal to all federal, state and local government web resources and services.